sensor_id;sensor_type;location;lat;lon;timestamp;temperature;humidity
36292;DHT22;22327;51.208;6.418;2024-02-21T00:01:58;13.10;99.90
36292;DHT22;22327;51.208;6.418;2024-02-21T00:04:58;13.10;99.90
36292;DHT22;22327;51.208;6.418;2024-02-21T00:07:59;13.10;99.90
36292;DHT22;22327;51.208;6.418;2024-02-21T00:11:00;13.10;99.90
36292;DHT22;22327;51.208;6.418;2024-02-21T00:14:01;13.00;99.90
36292;DHT22;22327;51.208;6.418;2024-02-21T00:17:01;13.00;99.90
36292;DHT22;22327;51.208;6.418;2024-02-21T00:23:54;13.10;99.90
36292;DHT22;22327;51.208;6.418;2024-02-21T00:26:55;13.10;99.90
36292;DHT22;22327;51.208;6.418;2024-02-21T00:29:55;13.10;99.90
36292;DHT22;22327;51.208;6.418;2024-02-21T00:32:56;13.00;99.90
36292;DHT22;22327;51.208;6.418;2024-02-21T00:35:57;13.10;99.90
36292;DHT22;22327;51.208;6.418;2024-02-21T00:38:57;13.10;99.90
36292;DHT22;22327;51.208;6.418;2024-02-21T00:41:58;13.20;99.90
36292;DHT22;22327;51.208;6.418;2024-02-21T00:44:58;13.20;99.90
36292;DHT22;22327;51.208;6.418;2024-02-21T00:47:59;13.20;99.90
36292;DHT22;22327;51.208;6.418;2024-02-21T00:51:00;13.30;99.90
36292;DHT22;22327;51.208;6.418;2024-02-21T00:54:00;13.40;99.90
36292;DHT22;22327;51.208;6.418;2024-02-21T00:57:01;13.30;99.90
36292;DHT22;22327;51.208;6.418;2024-02-21T01:00:03;13.30;99.90
36292;DHT22;22327;51.208;6.418;2024-02-21T01:03:04;13.40;99.90
36292;DHT22;22327;51.208;6.418;2024-02-21T01:06:04;13.30;99.90
36292;DHT22;22327;51.208;6.418;2024-02-21T01:09:07;13.30;99.90
36292;DHT22;22327;51.208;6.418;2024-02-21T01:12:07;13.40;99.90
36292;DHT22;22327;51.208;6.418;2024-02-21T01:15:08;13.40;99.90
36292;DHT22;22327;51.208;6.418;2024-02-21T01:18:09;13.40;99.90
36292;DHT22;22327;51.208;6.418;2024-02-21T01:21:09;13.40;99.90
36292;DHT22;22327;51.208;6.418;2024-02-21T01:24:10;13.40;99.90
36292;DHT22;22327;51.208;6.418;2024-02-21T01:27:11;13.40;99.90
36292;DHT22;22327;51.208;6.418;2024-02-21T01:30:12;13.40;99.90
36292;DHT22;22327;51.208;6.418;2024-02-21T01:33:12;13.50;99.90
36292;DHT22;22327;51.208;6.418;2024-02-21T01:36:13;13.50;99.90
36292;DHT22;22327;51.208;6.418;2024-02-21T01:39:13;13.40;99.90
36292;DHT22;22327;51.208;6.418;2024-02-21T01:42:14;13.40;99.90
36292;DHT22;22327;51.208;6.418;2024-02-21T01:45:14;13.40;99.90
36292;DHT22;22327;51.208;6.418;2024-02-21T01:48:16;13.40;99.90
36292;DHT22;22327;51.208;6.418;2024-02-21T01:51:17;13.40;99.90
36292;DHT22;22327;51.208;6.418;2024-02-21T01:54:18;13.40;99.90
36292;DHT22;22327;51.208;6.418;2024-02-21T01:57:19;13.40;99.90
36292;DHT22;22327;51.208;6.418;2024-02-21T02:00:20;13.40;99.90
36292;DHT22;22327;51.208;6.418;2024-02-21T02:03:21;13.40;99.90
36292;DHT22;22327;51.208;6.418;2024-02-21T02:06:21;13.30;99.90
36292;DHT22;22327;51.208;6.418;2024-02-21T02:09:22;13.30;99.90
36292;DHT22;22327;51.208;6.418;2024-02-21T02:12:23;13.30;99.90
36292;DHT22;22327;51.208;6.418;2024-02-21T02:15:24;13.30;99.90
36292;DHT22;22327;51.208;6.418;2024-02-21T02:18:25;13.30;99.90
36292;DHT22;22327;51.208;6.418;2024-02-21T02:21:29;13.20;99.90
36292;DHT22;22327;51.208;6.418;2024-02-21T02:24:30;13.10;99.90
36292;DHT22;22327;51.208;6.418;2024-02-21T02:27:30;13.10;99.90
36292;DHT22;22327;51.208;6.418;2024-02-21T02:30:35;13.10;99.90
36292;DHT22;22327;51.208;6.418;2024-02-21T02:33:39;13.10;99.90
36292;DHT22;22327;51.208;6.418;2024-02-21T02:36:39;13.20;99.90
36292;DHT22;22327;51.208;6.418;2024-02-21T02:39:40;13.20;99.90
36292;DHT22;22327;51.208;6.418;2024-02-21T02:42:40;13.20;99.90
36292;DHT22;22327;51.208;6.418;2024-02-21T02:45:41;13.20;99.90
36292;DHT22;22327;51.208;6.418;2024-02-21T02:48:41;13.20;99.90
36292;DHT22;22327;51.208;6.418;2024-02-21T02:51:43;13.10;99.90
36292;DHT22;22327;51.208;6.418;2024-02-21T02:54:46;13.10;99.90
36292;DHT22;22327;51.208;6.418;2024-02-21T02:57:52;13.10;99.90
36292;DHT22;22327;51.208;6.418;2024-02-21T03:00:52;13.20;99.90
36292;DHT22;22327;51.208;6.418;2024-02-21T03:03:53;13.20;99.90
36292;DHT22;22327;51.208;6.418;2024-02-21T03:06:54;13.10;99.90
36292;DHT22;22327;51.208;6.418;2024-02-21T03:09:54;13.20;99.90
36292;DHT22;22327;51.208;6.418;2024-02-21T03:12:55;13.10;99.90
36292;DHT22;22327;51.208;6.418;2024-02-21T03:15:56;13.10;99.90
36292;DHT22;22327;51.208;6.418;2024-02-21T03:18:56;13.00;99.90
36292;DHT22;22327;51.208;6.418;2024-02-21T03:21:57;13.10;99.90
36292;DHT22;22327;51.208;6.418;2024-02-21T03:24:57;13.10;99.90
36292;DHT22;22327;51.208;6.418;2024-02-21T03:27:58;13.10;99.90
36292;DHT22;22327;51.208;6.418;2024-02-21T03:30:58;13.10;99.90
36292;DHT22;22327;51.208;6.418;2024-02-21T03:33:59;13.00;99.90
36292;DHT22;22327;51.208;6.418;2024-02-21T03:36:59;13.10;99.90
36292;DHT22;22327;51.208;6.418;2024-02-21T03:40:00;13.00;99.90
36292;DHT22;22327;51.208;6.418;2024-02-21T03:43:01;13.00;99.90
36292;DHT22;22327;51.208;6.418;2024-02-21T03:46:01;13.00;99.90
36292;DHT22;22327;51.208;6.418;2024-02-21T03:49:02;13.00;99.90
36292;DHT22;22327;51.208;6.418;2024-02-21T03:52:03;13.00;99.90
36292;DHT22;22327;51.208;6.418;2024-02-21T03:55:03;12.90;99.90
36292;DHT22;22327;51.208;6.418;2024-02-21T03:58:04;12.90;99.90
36292;DHT22;22327;51.208;6.418;2024-02-21T04:01:04;13.00;99.90
36292;DHT22;22327;51.208;6.418;2024-02-21T04:04:05;13.10;99.90
36292;DHT22;22327;51.208;6.418;2024-02-21T04:07:05;13.10;99.90
36292;DHT22;22327;51.208;6.418;2024-02-21T04:10:12;13.20;99.90
36292;DHT22;22327;51.208;6.418;2024-02-21T04:13:12;13.10;99.90
36292;DHT22;22327;51.208;6.418;2024-02-21T04:16:13;13.10;99.90
36292;DHT22;22327;51.208;6.418;2024-02-21T04:19:13;13.10;99.90
36292;DHT22;22327;51.208;6.418;2024-02-21T04:22:14;13.10;99.90
36292;DHT22;22327;51.208;6.418;2024-02-21T04:25:15;13.00;99.90
36292;DHT22;22327;51.208;6.418;2024-02-21T04:28:15;13.00;99.90
36292;DHT22;22327;51.208;6.418;2024-02-21T04:31:16;13.00;99.90
36292;DHT22;22327;51.208;6.418;2024-02-21T04:34:16;13.00;99.90
36292;DHT22;22327;51.208;6.418;2024-02-21T04:37:17;12.90;99.90
36292;DHT22;22327;51.208;6.418;2024-02-21T04:40:17;12.80;99.90
36292;DHT22;22327;51.208;6.418;2024-02-21T04:43:18;12.80;99.90
36292;DHT22;22327;51.208;6.418;2024-02-21T04:46:18;12.80;99.90
36292;DHT22;22327;51.208;6.418;2024-02-21T04:49:19;12.80;99.90
36292;DHT22;22327;51.208;6.418;2024-02-21T04:52:20;12.70;99.90
36292;DHT22;22327;51.208;6.418;2024-02-21T04:55:20;12.70;99.90
36292;DHT22;22327;51.208;6.418;2024-02-21T04:58:21;12.70;99.90
36292;DHT22;22327;51.208;6.418;2024-02-21T05:01:21;12.70;99.90
36292;DHT22;22327;51.208;6.418;2024-02-21T05:04:22;12.70;99.90
36292;DHT22;22327;51.208;6.418;2024-02-21T05:07:22;12.70;99.90
36292;DHT22;22327;51.208;6.418;2024-02-21T05:10:23;12.70;99.90
36292;DHT22;22327;51.208;6.418;2024-02-21T05:13:23;12.70;99.90
36292;DHT22;22327;51.208;6.418;2024-02-21T05:16:24;12.70;99.90
36292;DHT22;22327;51.208;6.418;2024-02-21T05:19:24;12.70;99.90
36292;DHT22;22327;51.208;6.418;2024-02-21T05:22:25;12.80;99.90
36292;DHT22;22327;51.208;6.418;2024-02-21T05:25:28;12.80;99.90
36292;DHT22;22327;51.208;6.418;2024-02-21T05:28:29;12.80;99.90
36292;DHT22;22327;51.208;6.418;2024-02-21T05:34:53;12.80;99.90
36292;DHT22;22327;51.208;6.418;2024-02-21T05:37:53;12.70;99.90
36292;DHT22;22327;51.208;6.418;2024-02-21T05:40:54;12.70;99.90
36292;DHT22;22327;51.208;6.418;2024-02-21T05:43:54;12.70;99.90
36292;DHT22;22327;51.208;6.418;2024-02-21T05:46:55;12.80;99.90
36292;DHT22;22327;51.208;6.418;2024-02-21T05:49:55;12.80;99.90
36292;DHT22;22327;51.208;6.418;2024-02-21T05:52:56;12.80;99.90
36292;DHT22;22327;51.208;6.418;2024-02-21T05:55:57;12.90;99.90
36292;DHT22;22327;51.208;6.418;2024-02-21T05:58:57;12.90;99.90
36292;DHT22;22327;51.208;6.418;2024-02-21T06:01:58;12.90;99.90
36292;DHT22;22327;51.208;6.418;2024-02-21T06:04:58;12.90;99.90
36292;DHT22;22327;51.208;6.418;2024-02-21T06:07:59;12.90;99.90
36292;DHT22;22327;51.208;6.418;2024-02-21T06:10:59;12.90;99.90
36292;DHT22;22327;51.208;6.418;2024-02-21T06:14:00;12.90;99.90
36292;DHT22;22327;51.208;6.418;2024-02-21T06:17:00;12.90;99.90
36292;DHT22;22327;51.208;6.418;2024-02-21T06:20:01;12.80;99.90
36292;DHT22;22327;51.208;6.418;2024-02-21T06:23:05;12.80;99.90
36292;DHT22;22327;51.208;6.418;2024-02-21T06:26:05;12.80;99.90
36292;DHT22;22327;51.208;6.418;2024-02-21T06:29:06;12.80;99.90
36292;DHT22;22327;51.208;6.418;2024-02-21T06:32:06;12.80;99.90
36292;DHT22;22327;51.208;6.418;2024-02-21T06:35:07;12.80;99.90
36292;DHT22;22327;51.208;6.418;2024-02-21T06:38:07;12.90;99.90
36292;DHT22;22327;51.208;6.418;2024-02-21T06:41:17;13.00;99.90
36292;DHT22;22327;51.208;6.418;2024-02-21T06:44:21;13.00;99.90
36292;DHT22;22327;51.208;6.418;2024-02-21T06:47:22;12.90;99.90
36292;DHT22;22327;51.208;6.418;2024-02-21T06:50:22;12.90;99.90
36292;DHT22;22327;51.208;6.418;2024-02-21T06:53:26;12.90;99.90
36292;DHT22;22327;51.208;6.418;2024-02-21T06:56:27;12.80;99.90
36292;DHT22;22327;51.208;6.418;2024-02-21T06:59:29;12.80;99.90
36292;DHT22;22327;51.208;6.418;2024-02-21T07:02:29;12.70;99.90
36292;DHT22;22327;51.208;6.418;2024-02-21T07:05:30;12.70;99.90
36292;DHT22;22327;51.208;6.418;2024-02-21T07:08:30;12.70;99.90
36292;DHT22;22327;51.208;6.418;2024-02-21T07:11:31;12.80;99.90
36292;DHT22;22327;51.208;6.418;2024-02-21T07:14:35;12.80;99.90
36292;DHT22;22327;51.208;6.418;2024-02-21T07:17:36;12.80;99.90
36292;DHT22;22327;51.208;6.418;2024-02-21T07:20:37;12.80;99.90
36292;DHT22;22327;51.208;6.418;2024-02-21T07:23:43;12.90;99.90
36292;DHT22;22327;51.208;6.418;2024-02-21T07:26:44;12.90;99.90
36292;DHT22;22327;51.208;6.418;2024-02-21T07:29:45;12.80;99.90
36292;DHT22;22327;51.208;6.418;2024-02-21T07:32:50;12.90;99.90
36292;DHT22;22327;51.208;6.418;2024-02-21T07:35:51;12.90;99.90
36292;DHT22;22327;51.208;6.418;2024-02-21T07:38:51;12.90;99.90
36292;DHT22;22327;51.208;6.418;2024-02-21T07:41:52;12.80;99.90
36292;DHT22;22327;51.208;6.418;2024-02-21T07:44:53;12.80;99.90
36292;DHT22;22327;51.208;6.418;2024-02-21T07:47:53;12.80;99.90
36292;DHT22;22327;51.208;6.418;2024-02-21T07:50:57;12.70;99.90
36292;DHT22;22327;51.208;6.418;2024-02-21T07:53:57;12.80;99.90
36292;DHT22;22327;51.208;6.418;2024-02-21T07:56:58;12.80;99.90
36292;DHT22;22327;51.208;6.418;2024-02-21T07:59:58;12.80;99.90
36292;DHT22;22327;51.208;6.418;2024-02-21T08:02:59;12.70;99.90
36292;DHT22;22327;51.208;6.418;2024-02-21T08:06:00;12.70;99.90
36292;DHT22;22327;51.208;6.418;2024-02-21T08:09:00;12.80;99.90
36292;DHT22;22327;51.208;6.418;2024-02-21T08:12:01;12.80;99.90
36292;DHT22;22327;51.208;6.418;2024-02-21T08:15:02;12.90;99.90
36292;DHT22;22327;51.208;6.418;2024-02-21T08:18:08;12.90;99.90
36292;DHT22;22327;51.208;6.418;2024-02-21T08:21:09;12.90;99.90
36292;DHT22;22327;51.208;6.418;2024-02-21T08:24:09;13.00;99.90
36292;DHT22;22327;51.208;6.418;2024-02-21T08:27:11;12.90;99.90
36292;DHT22;22327;51.208;6.418;2024-02-21T08:30:12;12.90;99.90
36292;DHT22;22327;51.208;6.418;2024-02-21T08:33:12;12.90;99.90
36292;DHT22;22327;51.208;6.418;2024-02-21T08:36:19;12.90;99.90
36292;DHT22;22327;51.208;6.418;2024-02-21T08:39:20;12.90;99.90
36292;DHT22;22327;51.208;6.418;2024-02-21T08:42:20;12.90;99.90
36292;DHT22;22327;51.208;6.418;2024-02-21T08:45:21;12.90;99.90
36292;DHT22;22327;51.208;6.418;2024-02-21T08:48:21;12.90;99.90
36292;DHT22;22327;51.208;6.418;2024-02-21T08:51:23;13.00;99.90
36292;DHT22;22327;51.208;6.418;2024-02-21T08:54:23;13.10;99.90
36292;DHT22;22327;51.208;6.418;2024-02-21T08:57:24;13.10;99.90
36292;DHT22;22327;51.208;6.418;2024-02-21T09:00:24;13.20;99.90
36292;DHT22;22327;51.208;6.418;2024-02-21T09:03:27;13.30;99.90
36292;DHT22;22327;51.208;6.418;2024-02-21T09:06:27;13.40;99.90
36292;DHT22;22327;51.208;6.418;2024-02-21T09:09:29;13.40;99.90
36292;DHT22;22327;51.208;6.418;2024-02-21T09:12:29;13.30;99.90
36292;DHT22;22327;51.208;6.418;2024-02-21T09:15:30;13.30;99.90
36292;DHT22;22327;51.208;6.418;2024-02-21T09:18:30;13.30;99.90
36292;DHT22;22327;51.208;6.418;2024-02-21T09:21:31;13.30;99.90
36292;DHT22;22327;51.208;6.418;2024-02-21T09:24:31;13.30;99.90
36292;DHT22;22327;51.208;6.418;2024-02-21T09:27:32;13.30;99.90
36292;DHT22;22327;51.208;6.418;2024-02-21T09:30:33;13.40;99.90
36292;DHT22;22327;51.208;6.418;2024-02-21T09:33:33;13.40;99.90
36292;DHT22;22327;51.208;6.418;2024-02-21T09:36:34;13.40;99.90
36292;DHT22;22327;51.208;6.418;2024-02-21T09:39:35;13.50;99.90
36292;DHT22;22327;51.208;6.418;2024-02-21T09:42:38;13.50;99.90
36292;DHT22;22327;51.208;6.418;2024-02-21T09:45:40;13.50;99.90
36292;DHT22;22327;51.208;6.418;2024-02-21T09:49:11;13.50;99.90
36292;DHT22;22327;51.208;6.418;2024-02-21T09:52:15;13.60;99.90
36292;DHT22;22327;51.208;6.418;2024-02-21T09:55:17;13.60;99.90
36292;DHT22;22327;51.208;6.418;2024-02-21T09:58:18;13.70;99.90
36292;DHT22;22327;51.208;6.418;2024-02-21T10:01:18;13.70;99.90
36292;DHT22;22327;51.208;6.418;2024-02-21T10:04:23;13.80;99.90
36292;DHT22;22327;51.208;6.418;2024-02-21T10:07:24;13.80;99.90
36292;DHT22;22327;51.208;6.418;2024-02-21T10:10:26;13.80;99.90
36292;DHT22;22327;51.208;6.418;2024-02-21T10:13:29;13.90;99.90
36292;DHT22;22327;51.208;6.418;2024-02-21T10:16:29;14.00;99.90
36292;DHT22;22327;51.208;6.418;2024-02-21T10:19:30;14.20;99.90
36292;DHT22;22327;51.208;6.418;2024-02-21T10:22:30;14.40;99.90
36292;DHT22;22327;51.208;6.418;2024-02-21T10:25:36;14.50;99.80
36292;DHT22;22327;51.208;6.418;2024-02-21T10:28:43;14.50;99.50
36292;DHT22;22327;51.208;6.418;2024-02-21T10:31:46;14.70;99.60
36292;DHT22;22327;51.208;6.418;2024-02-21T10:34:48;14.70;99.10
36292;DHT22;22327;51.208;6.418;2024-02-21T10:37:52;14.80;99.20
36292;DHT22;22327;51.208;6.418;2024-02-21T10:40:55;14.70;99.00
36292;DHT22;22327;51.208;6.418;2024-02-21T10:44:00;14.60;98.80
36292;DHT22;22327;51.208;6.418;2024-02-21T10:47:08;14.50;99.00
36292;DHT22;22327;51.208;6.418;2024-02-21T10:50:12;14.50;99.40
36292;DHT22;22327;51.208;6.418;2024-02-21T10:56:32;14.60;98.80
36292;DHT22;22327;51.208;6.418;2024-02-21T10:59:37;14.50;98.90
36292;DHT22;22327;51.208;6.418;2024-02-21T11:02:39;14.60;99.40
36292;DHT22;22327;51.208;6.418;2024-02-21T11:05:41;14.60;99.00
36292;DHT22;22327;51.208;6.418;2024-02-21T11:08:42;14.70;99.00
36292;DHT22;22327;51.208;6.418;2024-02-21T11:11:44;14.80;98.50
36292;DHT22;22327;51.208;6.418;2024-02-21T11:14:44;14.90;98.50
36292;DHT22;22327;51.208;6.418;2024-02-21T11:17:54;14.80;98.40
36292;DHT22;22327;51.208;6.418;2024-02-21T11:20:55;14.90;98.50
36292;DHT22;22327;51.208;6.418;2024-02-21T11:23:55;15.00;98.30
36292;DHT22;22327;51.208;6.418;2024-02-21T11:27:19;15.00;98.20
36292;DHT22;22327;51.208;6.418;2024-02-21T11:30:26;15.00;97.90
36292;DHT22;22327;51.208;6.418;2024-02-21T11:33:27;14.90;98.20
36292;DHT22;22327;51.208;6.418;2024-02-21T11:36:27;14.90;98.10
36292;DHT22;22327;51.208;6.418;2024-02-21T11:39:31;14.90;98.30
36292;DHT22;22327;51.208;6.418;2024-02-21T11:42:32;15.00;98.40
36292;DHT22;22327;51.208;6.418;2024-02-21T11:45:33;15.10;97.40
36292;DHT22;22327;51.208;6.418;2024-02-21T11:48:33;14.90;97.50
36292;DHT22;22327;51.208;6.418;2024-02-21T11:51:34;14.90;97.80
36292;DHT22;22327;51.208;6.418;2024-02-21T11:54:35;15.00;98.00
36292;DHT22;22327;51.208;6.418;2024-02-21T11:57:37;15.10;97.80
36292;DHT22;22327;51.208;6.418;2024-02-21T12:00:41;15.20;97.20
36292;DHT22;22327;51.208;6.418;2024-02-21T12:03:43;15.30;97.50
36292;DHT22;22327;51.208;6.418;2024-02-21T12:06:50;15.40;97.30
36292;DHT22;22327;51.208;6.418;2024-02-21T12:09:51;15.60;96.90
36292;DHT22;22327;51.208;6.418;2024-02-21T12:12:52;15.70;95.60
36292;DHT22;22327;51.208;6.418;2024-02-21T12:15:52;15.50;95.90
36292;DHT22;22327;51.208;6.418;2024-02-21T12:18:53;15.50;95.80
36292;DHT22;22327;51.208;6.418;2024-02-21T12:21:54;15.70;95.80
36292;DHT22;22327;51.208;6.418;2024-02-21T12:24:55;15.90;95.10
36292;DHT22;22327;51.208;6.418;2024-02-21T12:27:55;15.90;95.00
36292;DHT22;22327;51.208;6.418;2024-02-21T12:30:56;16.00;94.70
36292;DHT22;22327;51.208;6.418;2024-02-21T12:33:57;15.90;94.50
36292;DHT22;22327;51.208;6.418;2024-02-21T12:36:58;15.90;94.40
36292;DHT22;22327;51.208;6.418;2024-02-21T12:39:59;15.90;94.50
36292;DHT22;22327;51.208;6.418;2024-02-21T12:43:00;16.00;94.60
36292;DHT22;22327;51.208;6.418;2024-02-21T12:46:03;16.10;94.30
36292;DHT22;22327;51.208;6.418;2024-02-21T12:49:04;16.20;94.40
36292;DHT22;22327;51.208;6.418;2024-02-21T12:52:05;16.30;93.70
36292;DHT22;22327;51.208;6.418;2024-02-21T12:55:06;16.10;93.70
36292;DHT22;22327;51.208;6.418;2024-02-21T12:58:07;16.00;94.00
36292;DHT22;22327;51.208;6.418;2024-02-21T13:01:08;15.90;94.30
36292;DHT22;22327;51.208;6.418;2024-02-21T13:04:09;16.00;94.70
36292;DHT22;22327;51.208;6.418;2024-02-21T13:07:09;16.10;94.30
36292;DHT22;22327;51.208;6.418;2024-02-21T13:10:10;16.20;94.60
36292;DHT22;22327;51.208;6.418;2024-02-21T13:13:10;16.40;94.30
36292;DHT22;22327;51.208;6.418;2024-02-21T13:16:12;16.40;93.60
36292;DHT22;22327;51.208;6.418;2024-02-21T13:19:13;16.20;93.80
36292;DHT22;22327;51.208;6.418;2024-02-21T13:22:17;16.10;94.10
36292;DHT22;22327;51.208;6.418;2024-02-21T13:25:20;16.00;94.40
36292;DHT22;22327;51.208;6.418;2024-02-21T13:28:21;16.00;94.20
36292;DHT22;22327;51.208;6.418;2024-02-21T13:31:22;16.00;94.70
36292;DHT22;22327;51.208;6.418;2024-02-21T13:34:22;16.10;94.60
36292;DHT22;22327;51.208;6.418;2024-02-21T13:37:23;16.20;94.60
36292;DHT22;22327;51.208;6.418;2024-02-21T13:40:23;16.40;94.30
36292;DHT22;22327;51.208;6.418;2024-02-21T13:43:26;16.30;94.20
36292;DHT22;22327;51.208;6.418;2024-02-21T13:46:26;16.30;94.30
36292;DHT22;22327;51.208;6.418;2024-02-21T13:49:27;16.40;94.30
36292;DHT22;22327;51.208;6.418;2024-02-21T13:52:28;16.40;94.10
36292;DHT22;22327;51.208;6.418;2024-02-21T13:55:28;16.40;93.90
36292;DHT22;22327;51.208;6.418;2024-02-21T13:58:29;16.30;93.70
36292;DHT22;22327;51.208;6.418;2024-02-21T14:01:29;16.30;94.30
36292;DHT22;22327;51.208;6.418;2024-02-21T14:04:32;16.30;93.80
36292;DHT22;22327;51.208;6.418;2024-02-21T14:07:33;16.30;93.00
36292;DHT22;22327;51.208;6.418;2024-02-21T14:10:33;16.30;92.90
36292;DHT22;22327;51.208;6.418;2024-02-21T14:13:35;16.30;92.70
36292;DHT22;22327;51.208;6.418;2024-02-21T14:16:35;16.40;92.90
36292;DHT22;22327;51.208;6.418;2024-02-21T14:19:36;16.50;92.70
36292;DHT22;22327;51.208;6.418;2024-02-21T14:22:36;16.50;91.60
36292;DHT22;22327;51.208;6.418;2024-02-21T14:25:37;16.40;91.70
36292;DHT22;22327;51.208;6.418;2024-02-21T14:28:39;16.30;91.30
36292;DHT22;22327;51.208;6.418;2024-02-21T14:31:40;16.20;91.40
36292;DHT22;22327;51.208;6.418;2024-02-21T14:34:41;16.10;91.50
36292;DHT22;22327;51.208;6.418;2024-02-21T14:37:41;16.10;91.60
36292;DHT22;22327;51.208;6.418;2024-02-21T14:40:42;16.10;91.30
36292;DHT22;22327;51.208;6.418;2024-02-21T14:43:43;16.10;91.10
36292;DHT22;22327;51.208;6.418;2024-02-21T14:46:44;16.00;91.10
36292;DHT22;22327;51.208;6.418;2024-02-21T14:49:44;16.00;90.80
36292;DHT22;22327;51.208;6.418;2024-02-21T14:52:45;16.00;91.10
36292;DHT22;22327;51.208;6.418;2024-02-21T14:55:45;16.00;91.00
36292;DHT22;22327;51.208;6.418;2024-02-21T14:58:46;16.00;91.10
36292;DHT22;22327;51.208;6.418;2024-02-21T15:01:47;16.00;91.40
36292;DHT22;22327;51.208;6.418;2024-02-21T15:04:48;16.10;91.40
36292;DHT22;22327;51.208;6.418;2024-02-21T15:07:48;16.10;91.10
36292;DHT22;22327;51.208;6.418;2024-02-21T15:10:49;16.00;90.80
36292;DHT22;22327;51.208;6.418;2024-02-21T15:13:50;15.90;90.80
36292;DHT22;22327;51.208;6.418;2024-02-21T15:16:51;15.90;90.80
36292;DHT22;22327;51.208;6.418;2024-02-21T15:19:51;15.90;91.20
36292;DHT22;22327;51.208;6.418;2024-02-21T15:22:55;15.80;90.90
36292;DHT22;22327;51.208;6.418;2024-02-21T15:25:55;15.80;90.80
36292;DHT22;22327;51.208;6.418;2024-02-21T15:28:56;15.60;90.50
36292;DHT22;22327;51.208;6.418;2024-02-21T15:31:56;15.60;90.70
36292;DHT22;22327;51.208;6.418;2024-02-21T15:34:57;15.50;90.80
36292;DHT22;22327;51.208;6.418;2024-02-21T15:37:58;15.50;91.30
36292;DHT22;22327;51.208;6.418;2024-02-21T15:40:58;15.50;91.40
36292;DHT22;22327;51.208;6.418;2024-02-21T15:43:59;15.40;91.70
36292;DHT22;22327;51.208;6.418;2024-02-21T15:47:00;15.40;91.90
36292;DHT22;22327;51.208;6.418;2024-02-21T15:50:01;15.30;92.50
36292;DHT22;22327;51.208;6.418;2024-02-21T15:53:02;15.20;92.60
36292;DHT22;22327;51.208;6.418;2024-02-21T15:56:02;15.20;92.50
36292;DHT22;22327;51.208;6.418;2024-02-21T15:59:03;15.20;92.20
36292;DHT22;22327;51.208;6.418;2024-02-21T16:02:05;15.20;92.20
36292;DHT22;22327;51.208;6.418;2024-02-21T16:05:07;15.10;91.90
36292;DHT22;22327;51.208;6.418;2024-02-21T16:08:09;15.10;91.80
36292;DHT22;22327;51.208;6.418;2024-02-21T16:11:16;14.90;92.40
36292;DHT22;22327;51.208;6.418;2024-02-21T16:14:17;14.80;93.50
36292;DHT22;22327;51.208;6.418;2024-02-21T16:17:18;14.70;93.90
36292;DHT22;22327;51.208;6.418;2024-02-21T16:20:19;14.60;94.30
36292;DHT22;22327;51.208;6.418;2024-02-21T16:23:19;14.40;95.10
36292;DHT22;22327;51.208;6.418;2024-02-21T16:26:20;14.20;95.90
36292;DHT22;22327;51.208;6.418;2024-02-21T16:29:20;14.10;96.50
36292;DHT22;22327;51.208;6.418;2024-02-21T16:32:23;14.00;97.10
36292;DHT22;22327;51.208;6.418;2024-02-21T16:35:23;13.90;97.40
36292;DHT22;22327;51.208;6.418;2024-02-21T16:38:24;13.90;97.80
36292;DHT22;22327;51.208;6.418;2024-02-21T16:41:26;13.70;98.20
36292;DHT22;22327;51.208;6.418;2024-02-21T16:44:30;13.60;98.50
36292;DHT22;22327;51.208;6.418;2024-02-21T16:47:35;13.50;98.70
36292;DHT22;22327;51.208;6.418;2024-02-21T16:50:36;13.60;99.00
36292;DHT22;22327;51.208;6.418;2024-02-21T16:53:37;13.60;99.00
36292;DHT22;22327;51.208;6.418;2024-02-21T16:56:38;13.60;99.10
36292;DHT22;22327;51.208;6.418;2024-02-21T16:59:39;13.60;99.30
36292;DHT22;22327;51.208;6.418;2024-02-21T17:02:42;13.50;99.30
36292;DHT22;22327;51.208;6.418;2024-02-21T17:05:43;13.60;99.40
36292;DHT22;22327;51.208;6.418;2024-02-21T17:08:45;13.50;99.20
36292;DHT22;22327;51.208;6.418;2024-02-21T17:11:45;13.40;99.30
36292;DHT22;22327;51.208;6.418;2024-02-21T17:14:46;13.30;99.30
36292;DHT22;22327;51.208;6.418;2024-02-21T17:17:46;13.30;99.70
36292;DHT22;22327;51.208;6.418;2024-02-21T17:20:47;13.30;99.40
36292;DHT22;22327;51.208;6.418;2024-02-21T17:23:49;13.20;99.50
36292;DHT22;22327;51.208;6.418;2024-02-21T17:26:49;13.20;99.80
36292;DHT22;22327;51.208;6.418;2024-02-21T17:29:50;13.20;99.90
36292;DHT22;22327;51.208;6.418;2024-02-21T17:32:50;13.20;99.90
36292;DHT22;22327;51.208;6.418;2024-02-21T17:35:52;13.10;99.90
36292;DHT22;22327;51.208;6.418;2024-02-21T17:38:53;13.00;99.90
36292;DHT22;22327;51.208;6.418;2024-02-21T17:41:54;12.90;99.90
36292;DHT22;22327;51.208;6.418;2024-02-21T17:44:56;12.90;99.90
36292;DHT22;22327;51.208;6.418;2024-02-21T17:47:57;12.80;99.90
36292;DHT22;22327;51.208;6.418;2024-02-21T17:50:57;12.70;99.90
36292;DHT22;22327;51.208;6.418;2024-02-21T17:53:59;12.70;99.90
36292;DHT22;22327;51.208;6.418;2024-02-21T17:56:59;12.70;99.90
36292;DHT22;22327;51.208;6.418;2024-02-21T18:00:00;12.70;99.90
36292;DHT22;22327;51.208;6.418;2024-02-21T18:03:02;12.70;99.90
36292;DHT22;22327;51.208;6.418;2024-02-21T18:06:03;12.70;99.90
36292;DHT22;22327;51.208;6.418;2024-02-21T18:09:04;12.70;99.90
36292;DHT22;22327;51.208;6.418;2024-02-21T18:12:05;12.70;99.90
36292;DHT22;22327;51.208;6.418;2024-02-21T18:15:06;12.60;99.90
36292;DHT22;22327;51.208;6.418;2024-02-21T18:18:07;12.60;99.90
36292;DHT22;22327;51.208;6.418;2024-02-21T18:21:07;12.50;99.90
36292;DHT22;22327;51.208;6.418;2024-02-21T18:24:08;12.50;99.90
36292;DHT22;22327;51.208;6.418;2024-02-21T18:27:08;12.40;99.90
36292;DHT22;22327;51.208;6.418;2024-02-21T18:30:09;12.40;99.90
36292;DHT22;22327;51.208;6.418;2024-02-21T18:33:10;12.40;99.90
36292;DHT22;22327;51.208;6.418;2024-02-21T18:36:11;12.50;99.90
36292;DHT22;22327;51.208;6.418;2024-02-21T18:39:12;12.40;99.90
36292;DHT22;22327;51.208;6.418;2024-02-21T18:42:13;12.40;99.90
36292;DHT22;22327;51.208;6.418;2024-02-21T18:45:13;12.40;99.90
36292;DHT22;22327;51.208;6.418;2024-02-21T18:48:15;12.40;99.90
36292;DHT22;22327;51.208;6.418;2024-02-21T18:51:16;12.40;99.90
36292;DHT22;22327;51.208;6.418;2024-02-21T18:54:16;12.40;99.90
36292;DHT22;22327;51.208;6.418;2024-02-21T18:57:17;12.40;99.90
36292;DHT22;22327;51.208;6.418;2024-02-21T19:00:18;12.30;99.90
36292;DHT22;22327;51.208;6.418;2024-02-21T19:03:23;12.30;99.90
36292;DHT22;22327;51.208;6.418;2024-02-21T19:06:23;12.30;99.90
36292;DHT22;22327;51.208;6.418;2024-02-21T19:09:24;12.30;99.90
36292;DHT22;22327;51.208;6.418;2024-02-21T19:12:24;12.30;99.90
36292;DHT22;22327;51.208;6.418;2024-02-21T19:15:25;12.30;99.90